首页
METAR-TAF:

METAR-TAF

机场 :

楠迪國際機場

楠迪, 斐濟

纬度: 17-45S, 经度: 177-27E, 海拔: 13米

当前天气观测

该预报发布于5分钟前的09:00 UTC
风速4节,风向东转东北
温度 25°C
湿度 74%
气压 1015 hPa
能见度10公里或以上
少量云层高于3000英尺

METAR: NFFN 260900Z 07004KT 9999 FEW030 25/20 Q1015 NOSIG

时间: 21:05 (09:05 UTC)

预报

该预报发布于4小时和4分钟前的05:01 UTC
预报有效从26日的 06点(UTC)到 27日的 06点(UTC)
风速6节,风向
能见度10公里或以上
散云层高于3000英尺
成为
从 26日的 22点(UTC)到 26日的 24点(UTC)
风速10节,风向西
几率 30% :
短暂存在
从 27日的 02点(UTC)到 27日的 06点(UTC)
能見度: 5000
多云层高于1500英尺
阵雨
成为
从 27日的 05点(UTC)到 27日的 06点(UTC)
风速6节,风向

TAF: NFFN 260501Z 2606/2706 08006KT 9999 SCT030 BECMG 2622/2624 28010KT PROB30 TEMPO 2702/2706 5000 SHRA BKN015 BECMG 2705/2706 08006KT

超过4000个机场的气象观测和天气预报(METAR&TAF报告)。

可查询的气象台以黄色和红色小点在地图上表示。

将鼠标移到小点上方,可查看气象台名称。

然后点击查看天气观测和预报。

如需切换地图:点击带黑十字的绿色按钮放大地图;点击带横线的绿色按钮缩小地图;或者点击绿色箭头查看邻近地区的地图。


METAR-TAF: